createdAt,value
2018-09-20T00:02:24.858Z,99.90
2018-09-20T00:04:53.206Z,99.90
2018-09-20T00:07:21.518Z,99.90
2018-09-20T00:09:49.885Z,99.90
2018-09-20T00:12:18.183Z,99.90
2018-09-20T00:14:46.674Z,99.90
2018-09-20T00:17:15.060Z,99.90
2018-09-20T00:19:43.398Z,99.90
2018-09-20T00:22:11.870Z,99.90
2018-09-20T00:24:40.205Z,99.90
2018-09-20T00:27:08.583Z,99.90
2018-09-20T00:29:37.145Z,99.90
2018-09-20T00:32:05.825Z,99.90
2018-09-20T00:34:34.225Z,99.90
2018-09-20T00:37:02.638Z,99.90
2018-09-20T00:39:31.022Z,99.90
2018-09-20T00:41:59.389Z,99.90
2018-09-20T00:44:27.724Z,99.90
2018-09-20T00:46:56.066Z,99.90
2018-09-20T00:49:24.394Z,99.90
2018-09-20T00:51:52.758Z,99.90
2018-09-20T00:54:21.132Z,99.90
2018-09-20T00:56:49.496Z,99.90
2018-09-20T00:59:17.834Z,99.90
2018-09-20T01:01:46.179Z,99.90
2018-09-20T01:04:14.500Z,99.90
2018-09-20T01:06:43.035Z,99.90
2018-09-20T01:09:12.057Z,99.90
2018-09-20T01:11:41.204Z,99.90
2018-09-20T01:14:09.872Z,99.90
2018-09-20T01:16:38.263Z,99.90
2018-09-20T01:19:06.699Z,99.90
2018-09-20T01:21:35.079Z,99.90
2018-09-20T01:24:03.408Z,99.90
2018-09-20T01:26:31.721Z,99.90
2018-09-20T01:29:00.113Z,99.90
2018-09-20T01:31:28.525Z,99.90
2018-09-20T01:33:56.834Z,99.90
2018-09-20T01:36:25.246Z,99.90
2018-09-20T01:38:53.562Z,99.90
2018-09-20T01:41:21.903Z,99.90
2018-09-20T01:43:50.254Z,99.90
2018-09-20T01:46:18.666Z,99.90
2018-09-20T01:48:47.011Z,99.90
2018-09-20T01:51:15.301Z,99.90
2018-09-20T01:53:43.650Z,99.90
2018-09-20T01:56:15.356Z,99.90
2018-09-20T01:58:44.860Z,99.90
2018-09-20T02:01:13.183Z,99.90
2018-09-20T02:03:41.482Z,99.90
2018-09-20T02:06:09.868Z,99.90
2018-09-20T02:08:38.194Z,99.90
2018-09-20T02:11:06.538Z,99.90
2018-09-20T02:13:34.892Z,99.90
2018-09-20T02:16:03.388Z,99.90
2018-09-20T02:18:31.757Z,99.90
2018-09-20T02:21:00.048Z,99.90
2018-09-20T02:23:28.351Z,99.90
2018-09-20T02:25:56.724Z,99.90
2018-09-20T02:28:25.114Z,99.90
2018-09-20T02:30:53.507Z,99.90
2018-09-20T02:33:21.787Z,99.90
2018-09-20T02:35:50.109Z,99.90
2018-09-20T02:38:18.436Z,99.90
2018-09-20T02:40:46.768Z,99.90
2018-09-20T02:43:15.113Z,99.90
2018-09-20T02:45:43.399Z,99.90
2018-09-20T02:48:11.743Z,99.90
2018-09-20T02:50:40.048Z,99.90
2018-09-20T02:53:08.381Z,99.90
2018-09-20T02:55:36.739Z,99.90
2018-09-20T02:58:05.078Z,99.90
2018-09-20T03:00:33.428Z,99.90
2018-09-20T03:03:01.754Z,99.90
2018-09-20T03:05:30.089Z,99.90
2018-09-20T03:07:58.505Z,99.90
2018-09-20T03:10:26.857Z,99.90
2018-09-20T03:12:55.194Z,99.90
2018-09-20T03:15:23.585Z,99.90
2018-09-20T03:17:51.869Z,99.90
2018-09-20T03:20:20.220Z,99.90
2018-09-20T03:22:48.602Z,99.90
2018-09-20T03:25:16.980Z,99.90
2018-09-20T03:27:45.366Z,99.90
2018-09-20T03:30:13.759Z,99.90
2018-09-20T03:32:42.128Z,99.90
2018-09-20T03:35:10.738Z,99.90
2018-09-20T03:37:39.122Z,99.90
2018-09-20T03:40:07.489Z,99.90
2018-09-20T03:42:35.980Z,99.90
2018-09-20T03:45:04.363Z,99.90
2018-09-20T03:47:32.747Z,99.90
2018-09-20T03:50:01.076Z,99.90
2018-09-20T03:52:29.413Z,99.90
2018-09-20T03:54:57.883Z,99.90
2018-09-20T03:57:26.293Z,99.90
2018-09-20T03:59:54.607Z,99.90
2018-09-20T04:02:22.990Z,99.90
2018-09-20T04:04:51.332Z,99.90
2018-09-20T04:07:19.705Z,99.90
2018-09-20T04:09:48.108Z,99.90
2018-09-20T04:12:16.424Z,99.90
2018-09-20T04:14:44.733Z,99.90
2018-09-20T04:17:13.030Z,99.90
2018-09-20T04:19:41.329Z,99.90
2018-09-20T04:22:09.711Z,99.90
2018-09-20T04:24:38.094Z,99.90
2018-09-20T04:27:06.456Z,99.90
2018-09-20T04:32:43.328Z,99.90
2018-09-20T04:35:11.747Z,99.90
2018-09-20T04:37:40.127Z,99.90
2018-09-20T04:40:08.657Z,99.90
2018-09-20T04:42:37.034Z,99.90
2018-09-20T04:45:06.037Z,99.90
2018-09-20T04:47:34.555Z,99.90
2018-09-20T04:50:03.002Z,99.90
2018-09-20T04:52:31.375Z,99.90
2018-09-20T04:54:59.734Z,99.90
2018-09-20T04:57:28.118Z,99.90
2018-09-20T04:59:56.580Z,99.90
2018-09-20T05:02:24.943Z,99.90
2018-09-20T05:04:53.406Z,99.90
2018-09-20T05:07:21.801Z,99.90
2018-09-20T05:09:50.230Z,99.90
2018-09-20T05:12:18.724Z,99.90
2018-09-20T05:14:47.485Z,99.90
2018-09-20T05:17:15.912Z,99.90
2018-09-20T05:19:44.279Z,99.90
2018-09-20T05:22:12.656Z,99.90
2018-09-20T05:24:41.007Z,99.90
2018-09-20T05:27:09.355Z,99.90
2018-09-20T05:29:37.729Z,99.90
2018-09-20T05:32:06.094Z,99.90
2018-09-20T05:34:34.459Z,99.90
2018-09-20T05:37:02.848Z,99.90
2018-09-20T05:39:31.164Z,99.90
2018-09-20T05:41:59.718Z,99.90
2018-09-20T05:44:28.097Z,99.90
2018-09-20T05:46:56.461Z,99.90
2018-09-20T05:49:24.889Z,99.90
2018-09-20T05:51:53.309Z,99.90
2018-09-20T05:54:21.645Z,99.90
2018-09-20T05:56:49.961Z,99.90
2018-09-20T05:59:18.469Z,99.90
2018-09-20T06:01:46.833Z,99.90
2018-09-20T06:04:15.206Z,99.90
2018-09-20T06:06:43.615Z,99.90
2018-09-20T06:09:11.989Z,99.90
2018-09-20T06:11:40.355Z,99.90
2018-09-20T06:14:08.769Z,99.90
2018-09-20T06:16:37.220Z,99.90
2018-09-20T06:19:05.581Z,99.90
2018-09-20T06:21:33.913Z,99.90
2018-09-20T06:24:02.286Z,99.90
2018-09-20T06:26:30.717Z,99.90
2018-09-20T06:28:59.058Z,99.90
2018-09-20T06:31:27.858Z,99.90
2018-09-20T06:33:56.186Z,99.90
2018-09-20T06:36:24.573Z,99.40
2018-09-20T06:38:52.917Z,99.10
2018-09-20T06:41:21.266Z,98.00
2018-09-20T06:43:49.623Z,97.50
2018-09-20T06:46:17.961Z,96.40
2018-09-20T06:48:46.411Z,96.00
2018-09-20T06:51:14.746Z,95.50
2018-09-20T06:53:43.075Z,95.00
2018-09-20T06:56:11.490Z,95.20
2018-09-20T06:58:39.841Z,95.10
2018-09-20T07:01:08.301Z,95.00
2018-09-20T07:03:36.880Z,94.90
2018-09-20T07:06:05.211Z,94.60
2018-09-20T07:08:33.757Z,94.00
2018-09-20T07:11:02.108Z,93.90
2018-09-20T07:13:30.484Z,93.80
2018-09-20T07:15:58.810Z,93.60
2018-09-20T07:18:27.391Z,94.10
2018-09-20T07:20:55.832Z,94.60
2018-09-20T07:23:24.211Z,94.60
2018-09-20T07:25:52.678Z,94.00
2018-09-20T07:28:21.010Z,93.60
2018-09-20T07:30:49.384Z,93.00
2018-09-20T07:33:17.895Z,93.20
2018-09-20T07:35:46.213Z,92.90
2018-09-20T07:38:14.554Z,93.00
2018-09-20T07:40:43.025Z,93.10
2018-09-20T07:43:11.694Z,93.40
2018-09-20T07:45:40.063Z,93.60
2018-09-20T07:48:08.413Z,93.50
2018-09-20T07:50:36.761Z,94.20
2018-09-20T07:53:05.112Z,94.90
2018-09-20T07:55:33.547Z,95.10
2018-09-20T07:58:02.032Z,95.10
2018-09-20T08:00:30.956Z,95.60
2018-09-20T08:02:59.537Z,94.40
2018-09-20T08:05:31.309Z,94.20
2018-09-20T08:07:59.739Z,94.40
2018-09-20T08:10:28.216Z,94.80
2018-09-20T08:12:56.621Z,96.00
2018-09-20T08:15:25.024Z,96.10
2018-09-20T08:17:53.413Z,96.90
2018-09-20T08:20:21.741Z,97.10
2018-09-20T08:22:50.188Z,97.10
2018-09-20T08:25:18.591Z,97.20
2018-09-20T08:27:46.932Z,97.20
2018-09-20T08:30:15.494Z,97.80
2018-09-20T08:32:43.891Z,97.10
2018-09-20T08:35:12.347Z,97.30
2018-09-20T08:37:40.824Z,96.70
2018-09-20T08:40:09.162Z,96.80
2018-09-20T08:42:37.602Z,96.70
2018-09-20T08:45:06.263Z,96.40
2018-09-20T08:47:34.631Z,96.40
2018-09-20T08:50:03.003Z,95.80
2018-09-20T08:52:31.389Z,95.00
2018-09-20T08:54:59.942Z,94.90
2018-09-20T08:57:28.326Z,94.70
2018-09-20T08:59:56.686Z,94.80
2018-09-20T09:02:25.068Z,94.60
2018-09-20T09:04:53.426Z,94.80
2018-09-20T09:07:21.774Z,94.10
2018-09-20T09:09:50.177Z,94.10
2018-09-20T09:12:18.636Z,93.40
2018-09-20T09:14:47.395Z,93.70
2018-09-20T09:17:15.777Z,93.60
2018-09-20T09:19:44.200Z,93.20
2018-09-20T09:22:12.546Z,93.60
2018-09-20T09:24:40.926Z,93.10
2018-09-20T09:27:09.373Z,92.90
2018-09-20T09:29:37.747Z,92.60
2018-09-20T09:32:06.138Z,92.90
2018-09-20T09:34:34.515Z,91.80
2018-09-20T09:37:03.042Z,91.80
2018-09-20T09:39:31.390Z,92.00
2018-09-20T09:41:59.751Z,91.50
2018-09-20T09:44:28.154Z,91.20
2018-09-20T09:46:56.457Z,90.90
2018-09-20T09:49:24.775Z,91.00
2018-09-20T09:51:53.187Z,90.90
2018-09-20T09:54:21.640Z,91.50
2018-09-20T09:56:50.001Z,91.30
2018-09-20T09:59:18.371Z,91.10
2018-09-20T10:01:46.703Z,90.80
2018-09-20T10:04:15.077Z,90.60
2018-09-20T10:06:43.555Z,90.70
2018-09-20T10:09:12.486Z,90.30
2018-09-20T10:11:40.836Z,90.20
2018-09-20T10:14:09.457Z,89.60
2018-09-20T10:16:37.869Z,89.10
2018-09-20T10:19:06.220Z,88.90
2018-09-20T10:21:34.585Z,89.30
2018-09-20T10:24:02.938Z,88.20
2018-09-20T10:26:31.340Z,88.00
2018-09-20T10:28:59.877Z,87.10
2018-09-20T10:31:28.293Z,87.80
2018-09-20T10:33:56.631Z,87.90
2018-09-20T10:36:24.985Z,88.50
2018-09-20T10:38:53.362Z,87.80
2018-09-20T10:41:21.718Z,86.50
2018-09-20T10:43:50.076Z,87.80
2018-09-20T10:46:18.408Z,87.80
2018-09-20T10:48:48.557Z,86.30
2018-09-20T10:51:17.218Z,85.50
2018-09-20T10:53:45.752Z,82.70
2018-09-20T10:56:14.097Z,82.10
2018-09-20T10:58:42.490Z,81.80
2018-09-20T11:01:10.906Z,80.70
2018-09-20T11:03:39.233Z,81.30
2018-09-20T11:06:07.674Z,81.90
2018-09-20T11:08:35.986Z,81.40
2018-09-20T11:11:04.435Z,81.40
2018-09-20T11:13:32.733Z,80.70
2018-09-20T11:16:01.110Z,79.90
2018-09-20T11:18:29.493Z,80.00
2018-09-20T11:20:57.914Z,79.10
2018-09-20T11:23:26.288Z,80.70
2018-09-20T11:25:55.128Z,78.40
2018-09-20T11:28:23.419Z,79.10
2018-09-20T11:30:51.860Z,79.40
2018-09-20T11:33:20.310Z,79.90
2018-09-20T11:35:48.753Z,81.00
2018-09-20T11:38:17.277Z,79.60
2018-09-20T11:40:45.692Z,78.80
2018-09-20T11:43:14.095Z,78.40
2018-09-20T11:45:42.820Z,78.20
2018-09-20T11:48:11.261Z,78.80
2018-09-20T11:50:39.675Z,79.20
2018-09-20T11:53:08.052Z,78.30
2018-09-20T11:55:36.525Z,79.40
2018-09-20T11:58:07.894Z,79.20
2018-09-20T12:00:36.494Z,77.80
2018-09-20T12:03:05.232Z,78.20
2018-09-20T12:05:33.609Z,77.80
2018-09-20T12:08:02.098Z,76.90
2018-09-20T12:10:30.452Z,76.80
2018-09-20T12:12:59.452Z,77.50
2018-09-20T12:15:27.864Z,79.20
2018-09-20T12:17:56.190Z,79.60
2018-09-20T12:20:24.707Z,79.20
2018-09-20T12:22:53.045Z,79.80
2018-09-20T12:25:21.484Z,78.60
2018-09-20T12:27:49.877Z,78.40
2018-09-20T12:30:18.319Z,76.90
2018-09-20T12:32:46.785Z,75.90
2018-09-20T12:35:15.163Z,75.10
2018-09-20T12:37:43.920Z,76.10
2018-09-20T12:40:12.309Z,77.30
2018-09-20T12:42:40.751Z,76.90
2018-09-20T12:45:09.165Z,77.40
2018-09-20T12:47:37.515Z,77.10
2018-09-20T12:50:06.453Z,76.90
2018-09-20T12:52:34.829Z,77.20
2018-09-20T12:55:03.193Z,76.40
2018-09-20T12:57:31.552Z,76.30
2018-09-20T12:59:59.889Z,76.00
2018-09-20T13:02:28.282Z,75.30
2018-09-20T13:04:56.654Z,75.10
2018-09-20T13:07:25.321Z,75.20
2018-09-20T13:09:53.744Z,74.00
2018-09-20T13:12:22.072Z,73.10
2018-09-20T13:14:50.413Z,71.50
2018-09-20T13:17:18.761Z,70.80
2018-09-20T13:19:47.269Z,70.20
2018-09-20T13:22:15.617Z,69.80
2018-09-20T13:24:44.068Z,68.60
2018-09-20T13:27:12.668Z,67.40
2018-09-20T13:29:41.022Z,67.10
2018-09-20T13:32:09.412Z,66.20
2018-09-20T13:34:37.761Z,67.10
2018-09-20T13:37:06.234Z,67.40
2018-09-20T13:39:34.532Z,67.00
2018-09-20T13:42:02.912Z,65.60
2018-09-20T13:44:31.288Z,64.60
2018-09-20T13:46:59.793Z,64.90
2018-09-20T13:49:28.489Z,64.00
2018-09-20T13:51:56.900Z,64.10
2018-09-20T13:54:25.389Z,64.60
2018-09-20T13:56:53.785Z,64.50
2018-09-20T13:59:22.172Z,64.80
2018-09-20T14:01:50.525Z,64.40
2018-09-20T14:04:18.915Z,63.50
2018-09-20T14:06:47.285Z,62.00
2018-09-20T14:09:15.710Z,61.60
2018-09-20T14:11:44.078Z,61.80
2018-09-20T14:14:12.556Z,62.20
2018-09-20T14:16:40.952Z,62.30
2018-09-20T14:19:09.322Z,63.50
2018-09-20T14:21:37.701Z,63.90
2018-09-20T14:24:06.180Z,63.90
2018-09-20T14:26:34.579Z,62.80
2018-09-20T14:29:02.947Z,62.00
2018-09-20T14:31:31.365Z,63.30
2018-09-20T14:33:59.709Z,62.90
2018-09-20T14:36:28.168Z,61.50
2018-09-20T14:38:56.566Z,62.40
2018-09-20T14:41:25.009Z,62.30
2018-09-20T14:43:53.372Z,62.10
2018-09-20T14:46:21.749Z,60.20
2018-09-20T14:48:50.157Z,60.50
2018-09-20T14:51:18.576Z,59.20
2018-09-20T14:53:47.263Z,59.80
2018-09-20T14:56:15.730Z,59.50
2018-09-20T14:58:44.141Z,60.00
2018-09-20T15:01:12.608Z,59.50
2018-09-20T15:03:40.985Z,59.60
2018-09-20T15:06:09.391Z,60.00
2018-09-20T15:08:37.786Z,59.90
2018-09-20T15:11:06.303Z,59.20
2018-09-20T15:13:34.688Z,59.40
2018-09-20T15:16:03.165Z,59.00
2018-09-20T15:18:31.561Z,58.50
2018-09-20T15:20:59.950Z,59.60
2018-09-20T15:23:28.388Z,59.60
2018-09-20T15:25:56.756Z,59.90
2018-09-20T15:28:25.151Z,60.70
2018-09-20T15:30:53.571Z,60.80
2018-09-20T15:33:21.966Z,61.30
2018-09-20T15:35:50.350Z,61.70
2018-09-20T15:38:18.738Z,61.80
2018-09-20T15:40:47.122Z,61.10
2018-09-20T15:43:15.508Z,61.50
2018-09-20T15:45:43.897Z,62.10
2018-09-20T15:48:12.331Z,62.40
2018-09-20T15:50:40.942Z,62.50
2018-09-20T15:53:09.904Z,61.90
2018-09-20T15:55:38.288Z,61.00
2018-09-20T15:58:06.716Z,60.60
2018-09-20T16:00:35.072Z,60.50
2018-09-20T16:03:03.519Z,61.90
2018-09-20T16:05:31.889Z,62.00
2018-09-20T16:08:00.312Z,62.00
2018-09-20T16:10:28.813Z,61.90
2018-09-20T16:12:57.336Z,62.70
2018-09-20T16:15:25.764Z,63.40
2018-09-20T16:17:54.294Z,63.80
2018-09-20T16:20:22.767Z,63.50
2018-09-20T16:22:51.220Z,64.10
2018-09-20T16:25:19.648Z,65.70
2018-09-20T16:27:48.263Z,66.10
2018-09-20T16:30:31.672Z,66.00
2018-09-20T16:35:23.584Z,66.90
2018-09-20T16:37:59.826Z,68.00
2018-09-20T16:40:31.524Z,69.70
2018-09-20T16:42:59.930Z,70.60
2018-09-20T16:45:28.348Z,70.60
2018-09-20T16:47:56.702Z,70.70
2018-09-20T16:50:25.106Z,71.40
2018-09-20T16:52:53.527Z,71.80
2018-09-20T16:55:21.906Z,72.60
2018-09-20T16:57:50.327Z,73.10
2018-09-20T17:00:18.809Z,73.80
2018-09-20T17:02:47.246Z,74.40
2018-09-20T17:05:15.798Z,74.70
2018-09-20T17:07:44.161Z,74.80
2018-09-20T17:10:12.581Z,75.60
2018-09-20T17:12:41.016Z,76.00
2018-09-20T17:15:09.677Z,76.40
2018-09-20T17:17:37.926Z,77.10
2018-09-20T17:20:06.448Z,77.40
2018-09-20T17:22:34.816Z,77.90
2018-09-20T17:25:03.209Z,78.20
2018-09-20T17:27:31.611Z,78.60
2018-09-20T17:29:59.997Z,79.10
2018-09-20T17:32:28.426Z,79.60
2018-09-20T17:34:57.109Z,80.10
2018-09-20T17:37:26.520Z,80.70
2018-09-20T17:39:56.013Z,81.00
2018-09-20T17:42:25.823Z,81.40
2018-09-20T17:44:54.274Z,81.90
2018-09-20T17:47:22.749Z,82.30
2018-09-20T17:49:51.122Z,82.70
2018-09-20T17:52:20.050Z,82.90
2018-09-20T17:54:49.067Z,83.30
2018-09-20T17:57:18.137Z,81.00
2018-09-20T17:59:46.549Z,83.80
2018-09-20T18:02:15.074Z,84.10
2018-09-20T18:04:43.488Z,84.50
2018-09-20T18:07:11.977Z,84.80
2018-09-20T18:09:40.523Z,85.10
2018-09-20T18:12:09.004Z,85.40
2018-09-20T18:14:37.430Z,86.70
2018-09-20T18:17:06.651Z,86.60
2018-09-20T18:19:35.118Z,86.90
2018-09-20T18:22:03.616Z,87.20
2018-09-20T18:24:32.047Z,87.60
2018-09-20T18:27:00.608Z,88.00
2018-09-20T18:29:29.213Z,88.50
2018-09-20T18:31:57.633Z,88.70
2018-09-20T18:34:26.126Z,89.00
2018-09-20T18:36:54.608Z,89.30
2018-09-20T18:39:23.115Z,89.70
2018-09-20T18:41:51.692Z,90.00
2018-09-20T18:44:20.096Z,90.00
2018-09-20T18:46:48.537Z,90.10
2018-09-20T18:49:16.923Z,90.10
2018-09-20T18:51:45.341Z,90.20
2018-09-20T18:54:13.750Z,90.30
2018-09-20T18:56:47.195Z,90.50
2018-09-20T18:59:15.668Z,90.70
2018-09-20T19:01:44.085Z,90.80
2018-09-20T19:04:12.594Z,91.10
2018-09-20T19:06:41.057Z,91.30
2018-09-20T19:09:09.754Z,91.60
2018-09-20T19:11:38.482Z,91.90
2018-09-20T19:14:07.099Z,92.10
2018-09-20T19:16:35.550Z,92.20
2018-09-20T19:19:03.970Z,92.30
2018-09-20T19:21:32.418Z,92.30
2018-09-20T19:24:00.842Z,92.40
2018-09-20T19:26:29.628Z,92.50
2018-09-20T19:28:58.021Z,92.80
2018-09-20T19:31:26.414Z,92.80
2018-09-20T19:33:54.920Z,93.10
2018-09-20T19:36:23.526Z,93.60
2018-09-20T19:38:51.998Z,93.90
2018-09-20T19:41:20.382Z,94.10
2018-09-20T19:43:51.421Z,94.30
2018-09-20T19:46:19.829Z,94.60
2018-09-20T19:48:49.409Z,94.80
2018-09-20T19:51:17.830Z,95.00
2018-09-20T19:53:46.814Z,94.90
2018-09-20T19:56:18.350Z,95.10
2018-09-20T19:58:47.440Z,95.30
2018-09-20T20:01:16.095Z,95.40
2018-09-20T20:03:44.587Z,95.70
2018-09-20T20:06:13.065Z,95.70
2018-09-20T20:08:41.586Z,95.80
2018-09-20T20:11:10.038Z,95.90
2018-09-20T20:13:38.537Z,95.90
2018-09-20T20:16:06.971Z,96.00
2018-09-20T20:18:35.409Z,96.00
2018-09-20T20:21:03.865Z,96.10
2018-09-20T20:23:32.315Z,96.20
2018-09-20T20:26:01.041Z,96.30
2018-09-20T20:28:29.552Z,96.70
2018-09-20T20:30:57.966Z,97.10
2018-09-20T20:33:26.687Z,97.40
2018-09-20T20:35:55.122Z,97.70
2018-09-20T20:38:23.540Z,97.80
2018-09-20T20:40:51.918Z,98.10
2018-09-20T20:43:20.380Z,98.50
2018-09-20T20:45:48.760Z,98.70
2018-09-20T20:48:17.151Z,99.10
2018-09-20T20:50:45.568Z,99.10
2018-09-20T20:53:14.006Z,99.20
2018-09-20T20:55:42.449Z,99.60
2018-09-20T20:58:10.973Z,99.60
2018-09-20T21:00:39.434Z,99.70
2018-09-20T21:03:08.155Z,99.60
2018-09-20T21:05:36.722Z,99.80
2018-09-20T21:08:05.254Z,99.90
2018-09-20T21:10:33.650Z,99.90
2018-09-20T21:13:02.168Z,99.90
2018-09-20T21:15:31.988Z,99.90
2018-09-20T21:18:00.365Z,99.90
2018-09-20T21:20:28.912Z,99.90
2018-09-20T21:22:57.317Z,99.90
2018-09-20T21:25:25.719Z,99.90
2018-09-20T21:27:54.081Z,99.90
2018-09-20T21:30:22.498Z,99.90
2018-09-20T21:32:50.938Z,99.90
2018-09-20T21:35:19.347Z,99.90
2018-09-20T21:37:47.888Z,99.90
2018-09-20T21:40:16.328Z,99.90
2018-09-20T21:42:44.660Z,99.90
2018-09-20T21:45:13.212Z,99.90
2018-09-20T21:47:41.553Z,99.90
2018-09-20T21:50:09.946Z,99.90
2018-09-20T21:52:38.371Z,99.90
2018-09-20T21:55:06.771Z,99.90
2018-09-20T21:57:35.166Z,99.90
2018-09-20T22:00:04.233Z,99.90
2018-09-20T22:02:38.096Z,99.90
2018-09-20T22:05:06.881Z,99.90
2018-09-20T22:07:35.300Z,99.90
2018-09-20T22:10:03.740Z,99.90
2018-09-20T22:12:32.171Z,99.90
2018-09-20T22:15:00.500Z,99.90
2018-09-20T22:17:28.898Z,99.90
2018-09-20T22:19:57.192Z,99.90
2018-09-20T22:22:25.553Z,99.90
2018-09-20T22:24:53.958Z,99.90
2018-09-20T22:27:22.348Z,99.90
2018-09-20T22:29:50.865Z,99.90
2018-09-20T22:32:19.316Z,99.90
2018-09-20T22:34:47.731Z,99.90
2018-09-20T22:37:16.127Z,99.90
2018-09-20T22:39:44.636Z,99.90
2018-09-20T22:42:13.043Z,99.90
2018-09-20T22:44:41.381Z,99.90
2018-09-20T22:47:09.703Z,99.90
2018-09-20T22:49:38.053Z,99.90
2018-09-20T22:52:06.435Z,99.90
2018-09-20T22:54:34.801Z,99.90
2018-09-20T22:57:03.217Z,99.90
2018-09-20T22:59:31.701Z,99.90
2018-09-20T23:02:00.103Z,99.90
2018-09-20T23:04:28.491Z,99.90
2018-09-20T23:06:56.822Z,99.90
2018-09-20T23:09:25.375Z,99.90
2018-09-20T23:11:53.744Z,99.90
2018-09-20T23:14:22.313Z,99.90
2018-09-20T23:16:50.658Z,99.90
2018-09-20T23:19:18.964Z,99.90
2018-09-20T23:21:47.289Z,99.90
2018-09-20T23:24:15.649Z,99.90
2018-09-20T23:26:44.018Z,99.90
2018-09-20T23:29:12.423Z,99.90
2018-09-20T23:31:40.876Z,99.90
2018-09-20T23:34:09.189Z,99.90
2018-09-20T23:36:37.518Z,99.90
2018-09-20T23:39:07.938Z,99.90
2018-09-20T23:41:36.347Z,99.90
2018-09-20T23:44:04.820Z,99.90
2018-09-20T23:46:33.149Z,99.90
2018-09-20T23:49:01.494Z,99.90
2018-09-20T23:51:29.899Z,99.90
2018-09-20T23:53:58.268Z,99.90
2018-09-20T23:56:26.613Z,99.90
2018-09-20T23:58:54.939Z,99.90
